createdAt,value
2022-10-06T00:00:29.569Z,0.80
2022-10-06T00:05:34.125Z,1.00
2022-10-06T00:10:40.127Z,1.00
2022-10-06T00:15:42.099Z,0.70
2022-10-06T00:20:55.858Z,1.00
2022-10-06T00:25:58.459Z,1.20
2022-10-06T00:31:03.025Z,0.77
2022-10-06T00:36:08.491Z,1.00
2022-10-06T00:41:16.580Z,1.05
2022-10-06T00:46:31.805Z,0.82
2022-10-06T00:51:34.502Z,1.40
2022-10-06T00:56:40.494Z,1.20
2022-10-06T01:02:11.349Z,1.17
2022-10-06T01:07:20.470Z,1.55
2022-10-06T01:12:22.509Z,1.00
2022-10-06T01:17:34.498Z,1.23
2022-10-06T01:22:45.558Z,1.10
2022-10-06T01:27:53.592Z,1.50
2022-10-06T01:32:58.632Z,1.15
2022-10-06T01:38:01.033Z,1.60
2022-10-06T01:43:05.651Z,1.70
2022-10-06T01:48:13.721Z,1.73
2022-10-06T01:53:21.479Z,1.42
2022-10-06T01:58:32.035Z,1.40
2022-10-06T02:03:38.533Z,2.10
2022-10-06T02:08:43.824Z,1.75
2022-10-06T02:13:45.871Z,1.63
2022-10-06T02:18:52.234Z,1.55
2022-10-06T02:24:03.837Z,1.65
2022-10-06T02:29:05.915Z,2.60
2022-10-06T02:34:07.808Z,1.65
2022-10-06T02:39:10.992Z,2.08
2022-10-06T02:44:12.965Z,1.65
2022-10-06T02:49:17.488Z,2.05
2022-10-06T02:54:19.482Z,1.80
2022-10-06T02:59:21.145Z,2.20
2022-10-06T03:04:23.036Z,2.20
2022-10-06T03:09:25.330Z,1.95
2022-10-06T03:14:30.325Z,2.55
2022-10-06T03:19:34.770Z,2.35
2022-10-06T03:24:38.660Z,2.10
2022-10-06T03:29:40.491Z,1.70
2022-10-06T03:34:43.942Z,2.35
2022-10-06T03:39:53.576Z,2.00
2022-10-06T03:44:56.910Z,2.58
2022-10-06T03:50:04.356Z,2.33
2022-10-06T03:55:09.752Z,2.50
2022-10-06T04:00:17.602Z,1.80
2022-10-06T04:05:24.620Z,2.15
2022-10-06T04:10:29.390Z,2.45
2022-10-06T04:15:33.607Z,2.40
2022-10-06T04:20:38.266Z,1.98
2022-10-06T04:25:42.627Z,2.05
2022-10-06T04:31:01.625Z,2.65
2022-10-06T04:36:06.892Z,2.30
2022-10-06T04:41:13.797Z,2.20
2022-10-06T04:51:44.904Z,2.47
2022-10-06T04:56:49.860Z,2.47
2022-10-06T05:01:55.344Z,2.45
2022-10-06T05:07:02.985Z,2.53
2022-10-06T05:12:11.535Z,2.25
2022-10-06T05:17:17.016Z,1.90
2022-10-06T05:22:24.803Z,2.97
2022-10-06T05:27:26.576Z,2.22
2022-10-06T05:32:35.975Z,1.85
2022-10-06T05:37:42.477Z,2.28
2022-10-06T05:42:47.500Z,2.20
2022-10-06T05:47:56.274Z,2.28
2022-10-06T05:53:06.935Z,2.20
2022-10-06T05:58:18.330Z,2.25
2022-10-06T06:03:25.330Z,2.65
2022-10-06T06:08:32.262Z,1.63
2022-10-06T06:13:35.785Z,2.63
2022-10-06T06:18:45.261Z,2.92
2022-10-06T06:23:51.837Z,3.15
2022-10-06T06:28:55.226Z,2.53
2022-10-06T06:34:04.774Z,2.40
2022-10-06T06:39:11.091Z,2.83
2022-10-06T06:44:17.864Z,2.72
2022-10-06T06:49:29.727Z,3.55
2022-10-06T06:54:41.845Z,2.50
2022-10-06T06:59:47.601Z,2.70
2022-10-06T07:04:54.262Z,3.13
2022-10-06T07:10:01.245Z,2.70
2022-10-06T07:15:24.969Z,2.05
2022-10-06T07:20:47.130Z,1.70
2022-10-06T07:25:53.317Z,2.80
2022-10-06T07:31:00.626Z,1.88
2022-10-06T07:36:07.110Z,2.70
2022-10-06T07:41:24.666Z,2.22
2022-10-06T07:46:33.402Z,2.75
2022-10-06T07:51:46.738Z,2.38
2022-10-06T07:56:54.772Z,2.60
2022-10-06T08:01:56.573Z,2.22
2022-10-06T08:07:00.911Z,2.35
2022-10-06T08:12:25.776Z,2.17
2022-10-06T08:17:30.644Z,2.05
2022-10-06T08:22:48.091Z,2.15
2022-10-06T08:27:53.371Z,2.47
2022-10-06T08:32:57.388Z,2.22
2022-10-06T08:38:00.069Z,2.15
2022-10-06T08:43:04.652Z,2.42
2022-10-06T08:48:16.152Z,2.33
2022-10-06T08:53:36.921Z,2.55
2022-10-06T08:59:07.733Z,2.50
2022-10-06T09:04:28.261Z,2.75
2022-10-06T09:09:47.928Z,2.42
2022-10-06T09:15:09.290Z,3.35
2022-10-06T09:20:19.257Z,2.45
2022-10-06T09:25:26.718Z,2.80
2022-10-06T09:30:28.450Z,2.20
2022-10-06T09:36:08.999Z,2.33
2022-10-06T09:41:14.176Z,2.67
2022-10-06T09:46:43.541Z,3.00
2022-10-06T09:51:57.957Z,2.28
2022-10-06T09:57:13.648Z,2.58
2022-10-06T10:02:41.066Z,2.60
2022-10-06T10:07:45.387Z,2.63
2022-10-06T10:13:03.016Z,2.28
2022-10-06T10:18:13.433Z,2.50
2022-10-06T10:23:21.992Z,2.60
2022-10-06T10:28:33.953Z,2.42
2022-10-06T10:33:54.177Z,2.47
2022-10-06T10:39:14.375Z,2.13
2022-10-06T10:44:27.925Z,2.08
2022-10-06T10:49:30.359Z,2.38
2022-10-06T10:54:37.423Z,2.95
2022-10-06T10:59:45.033Z,2.33
2022-10-06T11:04:58.562Z,2.03
2022-10-06T11:10:03.365Z,2.38
2022-10-06T11:15:43.281Z,2.20
2022-10-06T11:20:57.786Z,2.75
2022-10-06T11:26:20.113Z,1.90
2022-10-06T11:31:34.847Z,1.83
2022-10-06T11:36:51.704Z,1.70
2022-10-06T11:42:00.684Z,2.20
2022-10-06T11:47:08.608Z,1.90
2022-10-06T11:52:12.655Z,1.67
2022-10-06T11:57:29.465Z,1.50
2022-10-06T12:02:34.941Z,1.63
2022-10-06T12:07:54.369Z,2.08
2022-10-06T12:13:57.782Z,1.63
2022-10-06T12:18:49.598Z,1.55
2022-10-06T12:23:55.287Z,1.63
2022-10-06T12:29:19.099Z,2.10
2022-10-06T12:34:42.243Z,1.55
2022-10-06T12:39:46.441Z,1.15
2022-10-06T12:44:51.767Z,1.67
2022-10-06T12:50:04.455Z,1.30
2022-10-06T12:55:21.341Z,1.10
2022-10-06T13:00:27.283Z,1.27
2022-10-06T13:05:32.693Z,1.23
2022-10-06T13:10:36.733Z,1.42
2022-10-06T13:15:41.580Z,1.10
2022-10-06T13:20:48.005Z,1.30
2022-10-06T13:25:59.886Z,1.27
2022-10-06T13:31:18.074Z,1.42
2022-10-06T13:36:20.371Z,1.23
2022-10-06T13:41:24.334Z,1.20
2022-10-06T13:46:32.510Z,1.25
2022-10-06T13:51:38.856Z,1.30
2022-10-06T13:56:40.723Z,1.35
2022-10-06T14:01:45.124Z,1.30
2022-10-06T14:06:49.927Z,1.30
2022-10-06T14:12:00.786Z,1.50
2022-10-06T14:17:17.334Z,1.13
2022-10-06T14:22:38.339Z,1.27
2022-10-06T14:27:41.164Z,0.82
2022-10-06T14:32:46.206Z,1.20
2022-10-06T14:37:47.938Z,1.45
2022-10-06T14:42:49.622Z,1.23
2022-10-06T14:47:52.397Z,1.40
2022-10-06T14:52:54.331Z,1.30
2022-10-06T14:57:59.657Z,1.10
2022-10-06T15:03:01.494Z,1.30
2022-10-06T15:08:11.781Z,1.65
2022-10-06T15:13:13.830Z,1.17
2022-10-06T15:18:19.325Z,1.58
2022-10-06T15:23:21.238Z,1.23
2022-10-06T15:28:41.337Z,1.17
2022-10-06T15:33:48.788Z,1.10
2022-10-06T15:38:55.267Z,1.17
2022-10-06T15:44:02.360Z,1.95
2022-10-06T15:49:19.983Z,1.17
2022-10-06T15:54:26.351Z,1.88
2022-10-06T15:59:32.801Z,1.30
2022-10-06T16:04:39.048Z,1.38
2022-10-06T16:09:52.809Z,1.08
2022-10-06T16:15:00.286Z,1.42
2022-10-06T16:20:05.367Z,1.20
2022-10-06T16:25:10.791Z,1.40
2022-10-06T16:30:12.852Z,2.00
2022-10-06T16:35:19.595Z,1.42
2022-10-06T16:40:23.135Z,1.75
2022-10-06T16:45:33.737Z,1.42
2022-10-06T16:50:36.396Z,1.52
2022-10-06T16:55:51.276Z,1.65
2022-10-06T17:01:24.224Z,1.58
2022-10-06T17:06:28.226Z,1.85
2022-10-06T17:11:30.024Z,2.00
2022-10-06T17:16:37.187Z,1.88
2022-10-06T17:21:46.674Z,2.08
2022-10-06T17:26:51.121Z,2.42
2022-10-06T17:32:00.246Z,2.35
2022-10-06T17:37:02.856Z,2.88
2022-10-06T17:42:05.224Z,2.40
2022-10-06T17:47:10.610Z,2.17
2022-10-06T17:52:12.521Z,2.00
2022-10-06T17:57:16.794Z,2.88
2022-10-06T18:02:23.740Z,2.42
2022-10-06T18:07:25.586Z,2.15
2022-10-06T18:12:27.421Z,2.13
2022-10-06T18:17:29.717Z,2.58
2022-10-06T18:22:31.921Z,2.00
2022-10-06T18:27:39.246Z,2.40
2022-10-06T18:38:05.563Z,2.55
2022-10-06T18:43:07.369Z,1.92
2022-10-06T18:48:31.117Z,3.50
2022-10-06T18:53:36.408Z,2.70
2022-10-06T18:58:42.238Z,3.10
2022-10-06T19:03:47.614Z,2.90
2022-10-06T19:09:00.919Z,3.20
2022-10-06T19:14:09.354Z,2.53
2022-10-06T19:19:16.456Z,3.10
2022-10-06T19:24:20.650Z,2.95
2022-10-06T19:29:23.739Z,2.50
2022-10-06T19:34:26.045Z,2.50
2022-10-06T19:39:30.607Z,2.10
2022-10-06T19:44:33.732Z,2.08
2022-10-06T19:49:35.821Z,2.30
2022-10-06T19:54:38.626Z,2.42
2022-10-06T19:59:40.521Z,2.33
2022-10-06T20:04:42.523Z,2.58
2022-10-06T20:09:44.389Z,3.50
2022-10-06T20:14:46.207Z,1.92
2022-10-06T20:19:55.189Z,2.03
2022-10-06T20:25:14.965Z,1.92
2022-10-06T20:30:19.227Z,2.00
2022-10-06T20:35:25.771Z,2.83
2022-10-06T20:40:43.373Z,2.38
2022-10-06T20:45:45.207Z,2.03
2022-10-06T20:50:49.431Z,2.15
2022-10-06T20:55:53.607Z,2.65
2022-10-06T21:00:55.316Z,2.17
2022-10-06T21:05:59.681Z,2.47
2022-10-06T21:11:05.035Z,2.67
2022-10-06T21:16:07.208Z,2.58
2022-10-06T21:21:10.548Z,2.30
2022-10-06T21:26:19.505Z,2.83
2022-10-06T21:31:24.407Z,2.45
2022-10-06T21:36:28.007Z,2.42
2022-10-06T21:41:35.486Z,2.80
2022-10-06T21:46:55.913Z,2.00
2022-10-06T21:52:04.661Z,2.40
2022-10-06T21:57:08.977Z,1.88
2022-10-06T22:02:12.942Z,2.42
2022-10-06T22:07:14.689Z,2.00
2022-10-06T22:12:16.468Z,2.20
2022-10-06T22:17:22.793Z,1.85
2022-10-06T22:22:29.429Z,2.10
2022-10-06T22:27:33.651Z,2.15
2022-10-06T22:32:41.221Z,2.00
2022-10-06T22:37:47.825Z,2.25
2022-10-06T22:42:51.875Z,1.70
2022-10-06T22:48:01.400Z,1.90
2022-10-06T22:53:13.118Z,2.08
2022-10-06T22:58:16.425Z,2.20
2022-10-06T23:03:18.584Z,2.30
2022-10-06T23:08:22.627Z,1.92
2022-10-06T23:13:34.017Z,1.90
2022-10-06T23:18:37.263Z,2.13
2022-10-06T23:23:39.023Z,2.33
2022-10-06T23:28:43.675Z,1.65
2022-10-06T23:33:46.533Z,2.05
2022-10-06T23:38:49.309Z,1.57
2022-10-06T23:43:55.549Z,1.60
2022-10-06T23:48:57.366Z,1.93
2022-10-06T23:54:00.025Z,1.90
2022-10-06T23:59:02.342Z,1.60
